createdAt,value
2017-01-16T00:00:40.156Z,-14.26
2017-01-16T00:01:40.124Z,-14.26
2017-01-16T00:02:40.097Z,-14.26
2017-01-16T00:03:40.061Z,-14.2
2017-01-16T00:04:40.034Z,-14.29
2017-01-16T00:05:39.998Z,-14.22
2017-01-16T00:06:40.352Z,-14.22
2017-01-16T00:07:39.946Z,-14.22
2017-01-16T00:08:39.925Z,-14.19
2017-01-16T00:09:39.888Z,-14.18
2017-01-16T00:10:39.861Z,-14.3
2017-01-16T00:11:39.828Z,-14.3
2017-01-16T00:12:39.799Z,-14.27
2017-01-16T00:13:39.767Z,-14.33
2017-01-16T00:14:39.744Z,-14.37
2017-01-16T00:15:39.701Z,-14.4
2017-01-16T00:16:39.678Z,-14.54
2017-01-16T00:17:39.656Z,-14.54
2017-01-16T00:18:39.627Z,-14.52
2017-01-16T00:19:39.590Z,-14.51
2017-01-16T00:20:39.555Z,-14.69
2017-01-16T00:21:39.530Z,-14.65
2017-01-16T00:22:39.503Z,-14.82
2017-01-16T00:23:39.475Z,-14.82
2017-01-16T00:24:39.436Z,-14.84
2017-01-16T00:25:39.415Z,-14.76
2017-01-16T00:26:39.770Z,-14.82
2017-01-16T00:27:39.351Z,-14.84
2017-01-16T00:28:39.316Z,-14.84
2017-01-16T00:29:39.288Z,-14.97
2017-01-16T00:30:39.264Z,-14.97
2017-01-16T00:31:39.233Z,-14.96
2017-01-16T00:32:39.195Z,-14.97
2017-01-16T00:33:39.181Z,-14.92
2017-01-16T00:34:39.148Z,-14.86
2017-01-16T00:35:39.109Z,-14.87
2017-01-16T00:36:39.090Z,-14.75
2017-01-16T00:37:39.065Z,-14.78
2017-01-16T00:38:39.035Z,-14.68
2017-01-16T00:39:38.992Z,-14.65
2017-01-16T00:40:38.968Z,-14.55
2017-01-16T00:41:38.940Z,-14.55
2017-01-16T00:42:38.915Z,-14.55
2017-01-16T00:43:38.879Z,-14.54
2017-01-16T00:44:38.858Z,-14.54
2017-01-16T00:45:38.818Z,-14.47
2017-01-16T00:46:38.792Z,-14.5
2017-01-16T00:47:38.761Z,-14.37
2017-01-16T00:48:38.746Z,-14.33
2017-01-16T00:49:38.707Z,-14.31
2017-01-16T00:50:38.680Z,-14.31
2017-01-16T00:51:38.657Z,-14.2
2017-01-16T00:52:39.008Z,-14.13
2017-01-16T00:53:38.602Z,-14.19
2017-01-16T00:54:38.569Z,-14.13
2017-01-16T00:55:38.535Z,-14.12
2017-01-16T00:56:38.511Z,-14.1
2017-01-16T00:57:38.484Z,-14.09
2017-01-16T00:58:38.448Z,-14.02
2017-01-16T00:59:38.435Z,-13.92
2017-01-16T01:00:38.431Z,-13.92
2017-01-16T01:01:38.360Z,-13.83
2017-01-16T01:02:38.339Z,-13.94
2017-01-16T01:03:38.312Z,-13.77
2017-01-16T01:04:38.291Z,-13.67
2017-01-16T01:05:38.254Z,-13.8
2017-01-16T01:06:38.226Z,-13.73
2017-01-16T01:07:38.213Z,-13.7
2017-01-16T01:08:38.165Z,-13.67
2017-01-16T01:09:38.136Z,-13.65
2017-01-16T01:10:38.494Z,-13.54
2017-01-16T01:11:38.078Z,-13.59
2017-01-16T01:12:38.056Z,-13.45
2017-01-16T01:13:38.023Z,-13.45
2017-01-16T01:14:37.992Z,-13.44
2017-01-16T01:15:37.980Z,-13.41
2017-01-16T01:16:37.947Z,-13.35
2017-01-16T01:17:37.912Z,-13.31
2017-01-16T01:18:37.880Z,-13.43
2017-01-16T01:19:37.851Z,-13.34
2017-01-16T01:20:37.833Z,-13.3
2017-01-16T01:21:37.800Z,-13.3
2017-01-16T01:22:37.779Z,-13.33
2017-01-16T01:23:37.736Z,-13.35
2017-01-16T01:24:37.707Z,-13.38
2017-01-16T01:25:37.687Z,-13.45
2017-01-16T01:26:37.664Z,-13.51
2017-01-16T01:27:37.626Z,-13.45
2017-01-16T01:28:37.593Z,-13.49
2017-01-16T01:29:37.577Z,-13.61
2017-01-16T01:30:37.544Z,-13.77
2017-01-16T01:31:37.515Z,-13.74
2017-01-16T01:32:37.486Z,-13.87
2017-01-16T01:33:37.458Z,-13.91
2017-01-16T01:34:37.429Z,-13.98
2017-01-16T01:35:37.393Z,-13.97
2017-01-16T01:36:37.358Z,-14.19
2017-01-16T01:37:37.341Z,-14.19
2017-01-16T01:38:37.309Z,-14.19
2017-01-16T01:39:37.284Z,-14.22
2017-01-16T01:40:37.257Z,-14.26
2017-01-16T01:41:37.216Z,-14.24
2017-01-16T01:42:37.188Z,-14.33
2017-01-16T01:43:37.163Z,-14.26
2017-01-16T01:44:37.141Z,-14.44
2017-01-16T01:45:37.098Z,-14.36
2017-01-16T01:46:37.064Z,-14.37
2017-01-16T01:47:37.052Z,-14.44
2017-01-16T01:48:37.009Z,-14.4
2017-01-16T01:49:36.990Z,-14.47
2017-01-16T01:50:36.955Z,-14.48
2017-01-16T01:51:36.935Z,-14.39
2017-01-16T01:52:36.896Z,-14.29
2017-01-16T01:53:36.880Z,-14.31
2017-01-16T01:54:36.840Z,-14.3
2017-01-16T01:55:36.806Z,-14.27
2017-01-16T01:56:36.778Z,-14.16
2017-01-16T01:57:36.775Z,-14.22
2017-01-16T01:58:36.725Z,-14.29
2017-01-16T01:59:36.691Z,-14.2
2017-01-16T02:00:36.671Z,-14.13
2017-01-16T02:01:36.640Z,-14.16
2017-01-16T02:02:36.627Z,-14.15
2017-01-16T02:03:36.590Z,-14.19
2017-01-16T02:04:36.554Z,-14.16
2017-01-16T02:05:36.528Z,-14.16
2017-01-16T02:06:36.497Z,-14.15
2017-01-16T02:07:36.467Z,-14.16
2017-01-16T02:08:36.438Z,-14.18
2017-01-16T02:09:36.413Z,-14.24
2017-01-16T02:10:36.383Z,-14.22
2017-01-16T02:11:36.361Z,-14.27
2017-01-16T02:12:36.342Z,-14.22
2017-01-16T02:13:36.290Z,-14.31
2017-01-16T02:14:36.263Z,-14.2
2017-01-16T02:15:36.237Z,-14.19
2017-01-16T02:16:36.213Z,-14.31
2017-01-16T02:17:36.180Z,-14.31
2017-01-16T02:18:36.148Z,-14.27
2017-01-16T02:19:36.119Z,-14.29
2017-01-16T02:20:36.083Z,-14.3
2017-01-16T02:21:36.070Z,-14.31
2017-01-16T02:22:36.032Z,-14.36
2017-01-16T02:23:36.006Z,-14.44
2017-01-16T02:24:35.978Z,-14.4
2017-01-16T02:25:35.947Z,-14.48
2017-01-16T02:26:35.919Z,-14.51
2017-01-16T02:27:35.882Z,-14.51
2017-01-16T02:28:35.865Z,-14.57
2017-01-16T02:29:35.831Z,-14.54
2017-01-16T02:30:35.805Z,-14.55
2017-01-16T02:31:35.777Z,-14.54
2017-01-16T02:32:35.734Z,-14.55
2017-01-16T02:33:35.709Z,-14.6
2017-01-16T02:34:35.689Z,-14.55
2017-01-16T02:35:35.661Z,-14.55
2017-01-16T02:36:35.658Z,-14.66
2017-01-16T02:37:35.593Z,-14.54
2017-01-16T02:38:35.562Z,-14.6
2017-01-16T02:39:35.541Z,-14.65
2017-01-16T02:40:35.511Z,-14.55
2017-01-16T02:41:35.482Z,-14.55
2017-01-16T02:42:35.459Z,-14.5
2017-01-16T02:43:35.427Z,-14.6
2017-01-16T02:44:35.403Z,-14.52
2017-01-16T02:45:35.357Z,-14.51
2017-01-16T02:46:35.335Z,-14.57
2017-01-16T02:47:35.316Z,-14.58
2017-01-16T02:48:35.271Z,-14.58
2017-01-16T02:49:35.251Z,-14.57
2017-01-16T02:50:35.224Z,-14.51
2017-01-16T02:51:35.257Z,-14.45
2017-01-16T02:52:35.629Z,-14.39
2017-01-16T02:53:35.134Z,-14.4
2017-01-16T02:54:35.105Z,-14.47
2017-01-16T02:55:35.074Z,-14.44
2017-01-16T02:56:35.047Z,-14.31
2017-01-16T02:57:35.023Z,-14.36
2017-01-16T02:58:34.989Z,-14.29
2017-01-16T02:59:34.962Z,-14.26
2017-01-16T03:00:34.931Z,-14.2
2017-01-16T03:01:34.898Z,-14.29
2017-01-16T03:02:34.909Z,-14.19
2017-01-16T03:03:34.846Z,-14.19
2017-01-16T03:04:34.825Z,-14.19
2017-01-16T03:05:34.791Z,-14.24
2017-01-16T03:06:34.754Z,-14.22
2017-01-16T03:07:34.737Z,-14.26
2017-01-16T03:08:34.705Z,-14.24
2017-01-16T03:09:34.680Z,-14.22
2017-01-16T03:10:34.644Z,-14.29
2017-01-16T03:11:34.617Z,-14.29
2017-01-16T03:12:34.580Z,-14.31
2017-01-16T03:13:34.566Z,-14.31
2017-01-16T03:14:34.523Z,-14.27
2017-01-16T03:15:34.498Z,-14.27
2017-01-16T03:16:34.476Z,-14.29
2017-01-16T03:17:34.454Z,-14.22
2017-01-16T03:18:34.417Z,-14.24
2017-01-16T03:19:34.398Z,-14.19
2017-01-16T03:20:34.348Z,-14.22
2017-01-16T03:21:34.340Z,-14.18
2017-01-16T03:22:34.339Z,-14.26
2017-01-16T03:23:34.273Z,-14.24
2017-01-16T03:24:34.238Z,-14.2
2017-01-16T03:25:34.209Z,-14.24
2017-01-16T03:26:34.186Z,-14.26
2017-01-16T03:27:34.158Z,-14.18
2017-01-16T03:28:34.134Z,-14.15
2017-01-16T03:29:34.094Z,-14.15
2017-01-16T03:30:34.071Z,-14.12
2017-01-16T03:31:34.037Z,-14.16
2017-01-16T03:32:34.013Z,-14.16
2017-01-16T03:33:33.985Z,-14.04
2017-01-16T03:34:33.953Z,-14.04
2017-01-16T03:35:33.941Z,-14.1
2017-01-16T03:36:33.891Z,-14.09
2017-01-16T03:37:33.871Z,-14.01
2017-01-16T03:38:33.842Z,-14.01
2017-01-16T03:39:33.815Z,-14.02
2017-01-16T03:40:33.784Z,-13.89
2017-01-16T03:41:33.747Z,-13.97
2017-01-16T03:42:33.725Z,-13.91
2017-01-16T03:43:33.691Z,-13.91
2017-01-16T03:44:33.672Z,-13.78
2017-01-16T03:45:33.656Z,-13.81
2017-01-16T03:46:33.619Z,-13.74
2017-01-16T03:47:33.586Z,-13.87
2017-01-16T03:48:33.559Z,-13.7
2017-01-16T03:49:33.528Z,-13.65
2017-01-16T03:50:33.498Z,-13.73
2017-01-16T03:51:33.470Z,-13.73
2017-01-16T03:52:33.458Z,-13.8
2017-01-16T03:53:33.409Z,-13.8
2017-01-16T03:54:33.393Z,-13.73
2017-01-16T03:55:33.355Z,-13.76
2017-01-16T03:56:33.327Z,-13.71
2017-01-16T03:57:33.304Z,-13.67
2017-01-16T03:58:33.297Z,-13.65
2017-01-16T03:59:33.243Z,-13.59
2017-01-16T04:00:33.209Z,-13.62
2017-01-16T04:01:33.182Z,-13.58
2017-01-16T04:02:33.162Z,-13.61
2017-01-16T04:03:33.142Z,-13.62
2017-01-16T04:04:33.093Z,-13.52
2017-01-16T04:05:33.073Z,-13.54
2017-01-16T04:06:33.038Z,-13.64
2017-01-16T04:07:33.072Z,-13.64
2017-01-16T04:08:32.999Z,-13.55
2017-01-16T04:09:32.955Z,-13.56
2017-01-16T04:10:32.928Z,-13.56
2017-01-16T04:11:32.905Z,-13.55
2017-01-16T04:12:32.932Z,-13.56
2017-01-16T04:13:32.855Z,-13.47
2017-01-16T04:14:32.827Z,-13.49
2017-01-16T04:15:32.790Z,-13.43
2017-01-16T04:16:33.153Z,-13.47
2017-01-16T04:17:32.745Z,-13.31
2017-01-16T04:18:32.719Z,-13.27
2017-01-16T04:19:32.686Z,-13.24
2017-01-16T04:20:32.658Z,-13.3
2017-01-16T04:21:32.632Z,-13.4
2017-01-16T04:22:32.609Z,-13.35
2017-01-16T04:23:32.594Z,-13.27
2017-01-16T04:24:32.537Z,-13.17
2017-01-16T04:25:32.511Z,-13.13
2017-01-16T04:26:32.496Z,-13.09
2017-01-16T04:27:32.466Z,-13.08
2017-01-16T04:28:32.434Z,-13.12
2017-01-16T04:29:32.398Z,-13.06
2017-01-16T04:30:32.371Z,-13.02
2017-01-16T04:31:32.348Z,-13.04
2017-01-16T04:32:32.328Z,-12.98
2017-01-16T04:33:32.286Z,-12.94
2017-01-16T04:34:32.268Z,-13.01
2017-01-16T04:35:32.234Z,-12.99
2017-01-16T04:36:32.219Z,-13.02
2017-01-16T04:37:32.194Z,-12.92
2017-01-16T04:38:32.156Z,-12.88
2017-01-16T04:39:32.136Z,-12.83
2017-01-16T04:40:32.100Z,-12.9
2017-01-16T04:41:32.067Z,-12.81
2017-01-16T04:42:32.043Z,-12.83
2017-01-16T04:43:32.021Z,-12.81
2017-01-16T04:44:31.994Z,-12.83
2017-01-16T04:45:31.965Z,-12.85
2017-01-16T04:46:31.938Z,-12.88
2017-01-16T04:47:31.907Z,-12.96
2017-01-16T04:48:31.881Z,-12.9
2017-01-16T04:49:31.854Z,-12.84
2017-01-16T04:50:31.834Z,-12.92
2017-01-16T04:51:31.809Z,-12.9
2017-01-16T04:52:31.776Z,-12.98
2017-01-16T04:53:31.747Z,-12.94
2017-01-16T04:54:31.713Z,-12.87
2017-01-16T04:55:31.680Z,-12.88
2017-01-16T04:56:31.661Z,-12.95
2017-01-16T04:57:31.632Z,-12.92
2017-01-16T04:58:31.614Z,-12.88
2017-01-16T04:59:31.578Z,-12.84
2017-01-16T05:00:31.543Z,-12.84
2017-01-16T05:01:31.528Z,-12.84
2017-01-16T05:02:31.500Z,-12.74
2017-01-16T05:03:31.461Z,-12.77
2017-01-16T05:04:31.450Z,-12.7
2017-01-16T05:05:31.420Z,-12.62
2017-01-16T05:06:31.381Z,-12.63
2017-01-16T05:07:31.363Z,-12.54
2017-01-16T05:08:31.341Z,-12.56
2017-01-16T05:09:31.299Z,-12.56
2017-01-16T05:10:31.270Z,-12.38
2017-01-16T05:11:31.251Z,-12.41
2017-01-16T05:12:31.227Z,-12.34
2017-01-16T05:13:31.200Z,-12.34
2017-01-16T05:14:31.177Z,-12.36
2017-01-16T05:15:31.143Z,-12.1
2017-01-16T05:16:31.127Z,-12.09
2017-01-16T05:17:31.085Z,-12.08
2017-01-16T05:18:31.065Z,-12.12
2017-01-16T05:19:31.039Z,-12
2017-01-16T05:20:31.010Z,-12.02
2017-01-16T05:21:30.984Z,-12
2017-01-16T05:22:30.958Z,-12.02
2017-01-16T05:23:30.929Z,-11.84
2017-01-16T05:24:30.896Z,-11.9
2017-01-16T05:25:30.864Z,-11.9
2017-01-16T05:26:30.866Z,-11.88
2017-01-16T05:27:30.820Z,-11.85
2017-01-16T05:28:30.791Z,-11.8
2017-01-16T05:29:30.758Z,-11.82
2017-01-16T05:30:30.739Z,-11.85
2017-01-16T05:31:30.716Z,-11.81
2017-01-16T05:32:30.684Z,-11.9
2017-01-16T05:33:30.658Z,-11.88
2017-01-16T05:34:30.622Z,-11.94
2017-01-16T05:35:30.598Z,-11.95
2017-01-16T05:36:30.577Z,-12.06
2017-01-16T05:37:30.539Z,-12
2017-01-16T05:38:30.732Z,-12.06
2017-01-16T05:39:30.495Z,-12.19
2017-01-16T05:40:30.463Z,-12.19
2017-01-16T05:41:30.433Z,-12.28
2017-01-16T05:42:30.406Z,-12.31
2017-01-16T05:43:30.387Z,-12.31
2017-01-16T05:44:30.351Z,-12.31
2017-01-16T05:45:30.329Z,-12.28
2017-01-16T05:46:30.284Z,-12.41
2017-01-16T05:47:30.267Z,-12.46
2017-01-16T05:48:30.240Z,-12.48
2017-01-16T05:49:30.212Z,-12.49
2017-01-16T05:50:30.190Z,-12.6
2017-01-16T05:51:30.153Z,-12.7
2017-01-16T05:52:30.130Z,-12.67
2017-01-16T05:53:30.103Z,-12.7
2017-01-16T05:54:30.062Z,-12.85
2017-01-16T05:55:30.055Z,-12.88
2017-01-16T05:56:30.011Z,-12.96
2017-01-16T05:57:29.982Z,-12.95
2017-01-16T05:58:29.957Z,-13.06
2017-01-16T05:59:29.927Z,-13.16
2017-01-16T06:00:29.891Z,-13.2
2017-01-16T06:01:29.871Z,-13.16
2017-01-16T06:02:29.839Z,-13.31
2017-01-16T06:03:29.810Z,-13.38
2017-01-16T06:04:29.987Z,-13.4
2017-01-16T06:05:29.752Z,-13.44
2017-01-16T06:06:29.717Z,-13.54
2017-01-16T06:07:29.695Z,-13.51
2017-01-16T06:08:29.659Z,-13.61
2017-01-16T06:09:29.632Z,-13.67
2017-01-16T06:10:29.618Z,-13.73
2017-01-16T06:11:29.583Z,-13.77
2017-01-16T06:12:29.555Z,-13.71
2017-01-16T06:13:29.527Z,-13.71
2017-01-16T06:14:29.498Z,-13.71
2017-01-16T06:15:29.476Z,-13.7
2017-01-16T06:16:29.439Z,-13.67
2017-01-16T06:17:29.451Z,-13.74
2017-01-16T06:18:29.386Z,-13.61
2017-01-16T06:19:29.358Z,-13.59
2017-01-16T06:20:29.328Z,-13.64
2017-01-16T06:21:29.301Z,-13.56
2017-01-16T06:22:29.275Z,-13.64
2017-01-16T06:23:29.244Z,-13.61
2017-01-16T06:24:29.207Z,-13.54
2017-01-16T06:25:29.190Z,-13.51
2017-01-16T06:26:29.163Z,-13.43
2017-01-16T06:27:29.130Z,-13.43
2017-01-16T06:28:29.100Z,-13.45
2017-01-16T06:29:29.070Z,-13.43
2017-01-16T06:30:29.047Z,-13.45
2017-01-16T06:31:29.022Z,-13.43
2017-01-16T06:32:28.992Z,-13.45
2017-01-16T06:33:28.969Z,-13.47
2017-01-16T06:34:28.934Z,-13.47
2017-01-16T06:35:28.907Z,-13.62
2017-01-16T06:36:28.872Z,-13.61
2017-01-16T06:37:28.845Z,-13.64
2017-01-16T06:38:28.843Z,-13.64
2017-01-16T06:39:28.786Z,-13.56
2017-01-16T06:40:28.757Z,-13.56
2017-01-16T06:41:28.743Z,-13.51
2017-01-16T06:42:28.705Z,-13.47
2017-01-16T06:43:28.690Z,-13.44
2017-01-16T06:44:28.657Z,-13.38
2017-01-16T06:45:28.618Z,-13.45
2017-01-16T06:46:28.595Z,-13.51
2017-01-16T06:47:28.567Z,-13.38
2017-01-16T06:48:28.544Z,-13.38
2017-01-16T06:49:28.514Z,-13.43
2017-01-16T06:50:28.485Z,-13.4
2017-01-16T06:51:28.455Z,-13.45
2017-01-16T06:52:28.426Z,-13.52
2017-01-16T06:53:28.410Z,-13.52
2017-01-16T06:54:28.363Z,-13.52
2017-01-16T06:55:28.539Z,-13.52
2017-01-16T06:56:28.514Z,-13.55
2017-01-16T06:57:28.284Z,-13.49
2017-01-16T06:58:28.262Z,-13.47
2017-01-16T06:59:28.228Z,-13.47
2017-01-16T07:00:28.212Z,-13.43
2017-01-16T07:01:28.176Z,-13.43
2017-01-16T07:02:28.147Z,-13.49
2017-01-16T07:03:28.120Z,-13.35
2017-01-16T07:04:28.083Z,-13.38
2017-01-16T07:05:28.053Z,-13.35
2017-01-16T07:06:28.030Z,-13.27
2017-01-16T07:07:28.012Z,-13.26
2017-01-16T07:08:27.978Z,-13.3
2017-01-16T07:09:27.941Z,-13.24
2017-01-16T07:10:27.924Z,-13.23
2017-01-16T07:11:27.898Z,-13.26
2017-01-16T07:12:27.862Z,-13.27
2017-01-16T07:13:27.830Z,-13.23
2017-01-16T07:14:27.814Z,-13.19
2017-01-16T07:15:27.775Z,-13.26
2017-01-16T07:16:27.756Z,-13.19
2017-01-16T07:17:27.721Z,-13.16
2017-01-16T07:18:27.694Z,-13.26
2017-01-16T07:19:27.667Z,-13.23
2017-01-16T07:20:27.646Z,-13.14
2017-01-16T07:21:27.620Z,-13.12
2017-01-16T07:22:27.593Z,-13.2
2017-01-16T07:23:27.555Z,-13.12
2017-01-16T07:24:27.531Z,-13.16
2017-01-16T07:25:27.492Z,-13.05
2017-01-16T07:26:27.893Z,-13.08
2017-01-16T07:27:27.430Z,-13.12
2017-01-16T07:28:27.414Z,-13.02
2017-01-16T07:29:27.383Z,-13.01
2017-01-16T07:30:27.353Z,-13.12
2017-01-16T07:31:27.328Z,-13.04
2017-01-16T07:32:27.302Z,-13.08
2017-01-16T07:33:27.275Z,-13.02
2017-01-16T07:34:27.250Z,-13.05
2017-01-16T07:35:27.214Z,-13.06
2017-01-16T07:36:27.180Z,-12.99
2017-01-16T07:37:27.157Z,-12.99
2017-01-16T07:38:27.126Z,-12.95
2017-01-16T07:39:27.099Z,-12.92
2017-01-16T07:40:27.087Z,-12.85
2017-01-16T07:41:27.054Z,-12.9
2017-01-16T07:42:27.025Z,-12.83
2017-01-16T07:43:26.995Z,-12.8
2017-01-16T07:44:26.981Z,-12.85
2017-01-16T07:45:26.943Z,-12.84
2017-01-16T07:46:26.922Z,-12.83
2017-01-16T07:47:26.893Z,-12.78
2017-01-16T07:48:26.864Z,-12.8
2017-01-16T07:49:26.836Z,-12.7
2017-01-16T07:50:26.810Z,-12.6
2017-01-16T07:51:26.777Z,-12.67
2017-01-16T07:52:26.753Z,-12.6
2017-01-16T07:53:26.715Z,-12.59
2017-01-16T07:54:26.705Z,-12.6
2017-01-16T07:55:26.663Z,-12.42
2017-01-16T07:56:26.654Z,-12.39
2017-01-16T07:57:26.617Z,-12.38
2017-01-16T07:58:26.585Z,-12.24
2017-01-16T07:59:26.572Z,-12.31
2017-01-16T08:00:26.533Z,-12.19
2017-01-16T08:01:26.508Z,-12.12
2017-01-16T08:02:26.487Z,-12.13
2017-01-16T08:03:26.451Z,-12.03
2017-01-16T08:04:26.425Z,-11.95
2017-01-16T08:05:26.399Z,-11.82
2017-01-16T08:06:26.375Z,-11.82
2017-01-16T08:07:26.358Z,-11.7
2017-01-16T08:08:26.329Z,-11.66
2017-01-16T08:09:26.301Z,-11.6
2017-01-16T08:10:26.272Z,-11.55
2017-01-16T08:11:26.247Z,-11.42
2017-01-16T08:12:26.227Z,-11.45
2017-01-16T08:13:26.187Z,-11.32
2017-01-16T08:14:26.178Z,-11.24
2017-01-16T08:15:26.134Z,-11.11
2017-01-16T08:16:26.112Z,-11.07
2017-01-16T08:17:26.090Z,-11.06
2017-01-16T08:18:26.058Z,-10.86
2017-01-16T08:19:26.042Z,-10.86
2017-01-16T08:20:26.014Z,-10.77
2017-01-16T08:21:25.999Z,-10.77
2017-01-16T08:22:25.971Z,-10.73
2017-01-16T08:23:25.941Z,-10.6
2017-01-16T08:24:25.918Z,-10.47
2017-01-16T08:25:25.900Z,-10.5
2017-01-16T08:26:25.871Z,-10.35
2017-01-16T08:27:25.836Z,-10.34
2017-01-16T08:28:25.823Z,-10.21
2017-01-16T08:29:25.802Z,-10.23
2017-01-16T08:30:25.781Z,-10.24
2017-01-16T08:31:25.756Z,-10.14
2017-01-16T08:32:25.738Z,-10.11
2017-01-16T08:33:25.713Z,-10.03
2017-01-16T08:34:25.667Z,-10.06
2017-01-16T08:35:25.655Z,-10.05
2017-01-16T08:36:25.612Z,-10.02
2017-01-16T08:37:25.598Z,-10.03
2017-01-16T08:38:25.568Z,-9.97
2017-01-16T08:39:25.539Z,-10
2017-01-16T08:40:25.524Z,-9.88
2017-01-16T08:41:25.506Z,-9.84
2017-01-16T08:42:25.472Z,-9.88
2017-01-16T08:43:25.460Z,-9.66
2017-01-16T08:44:25.429Z,-9.63
2017-01-16T08:45:25.409Z,-9.54
2017-01-16T08:46:25.384Z,-9.46
2017-01-16T08:47:25.355Z,-9.41
2017-01-16T08:48:25.339Z,-9.3
2017-01-16T08:49:25.310Z,-9.21
2017-01-16T08:50:25.285Z,-9.34
2017-01-16T08:51:25.270Z,-9.17
2017-01-16T08:52:25.242Z,-9.07
2017-01-16T08:53:25.231Z,-8.94
2017-01-16T08:54:25.191Z,-8.94
2017-01-16T08:55:25.165Z,-8.88
2017-01-16T08:56:25.178Z,-8.78
2017-01-16T08:57:25.121Z,-8.7
2017-01-16T08:58:25.100Z,-8.66
2017-01-16T08:59:25.085Z,-8.68
2017-01-16T09:00:25.050Z,-8.53
2017-01-16T09:01:25.038Z,-8.55
2017-01-16T09:02:25.001Z,-8.58
2017-01-16T09:03:24.974Z,-8.47
2017-01-16T09:04:24.956Z,-8.46
2017-01-16T09:05:24.929Z,-8.39
2017-01-16T09:06:24.907Z,-8.28
2017-01-16T09:07:24.894Z,-8.25
2017-01-16T09:08:24.875Z,-8.17
2017-01-16T09:09:24.839Z,-8.21
2017-01-16T09:10:24.818Z,-8.08
2017-01-16T09:11:24.797Z,-8.1
2017-01-16T09:12:24.766Z,-8.06
2017-01-16T09:13:24.759Z,-7.92
2017-01-16T09:14:24.728Z,-7.8
2017-01-16T09:15:24.712Z,-7.84
2017-01-16T09:16:24.691Z,-7.85
2017-01-16T09:17:24.657Z,-7.77
2017-01-16T09:18:24.639Z,-7.68
2017-01-16T09:19:24.614Z,-7.6
2017-01-16T09:20:24.595Z,-7.56
2017-01-16T09:21:24.569Z,-7.6
2017-01-16T09:22:24.545Z,-7.46
2017-01-16T09:23:24.525Z,-7.38
2017-01-16T09:24:24.514Z,-7.34
2017-01-16T09:25:24.484Z,-7.27
2017-01-16T09:26:24.457Z,-7.29
2017-01-16T09:27:24.440Z,-7.2
2017-01-16T09:28:24.428Z,-7.27
2017-01-16T09:29:24.396Z,-7.17
2017-01-16T09:30:24.371Z,-7.05
2017-01-16T09:31:24.344Z,-7.03
2017-01-16T09:32:24.321Z,-7.08
2017-01-16T09:33:24.315Z,-6.95
2017-01-16T09:34:24.279Z,-6.93
2017-01-16T09:35:24.260Z,-6.84
2017-01-16T09:36:24.247Z,-6.89
2017-01-16T09:37:24.228Z,-6.81
2017-01-16T09:38:24.192Z,-6.77
2017-01-16T09:39:24.174Z,-6.77
2017-01-16T09:40:24.152Z,-6.79
2017-01-16T09:41:24.125Z,-6.67
2017-01-16T09:42:24.105Z,-6.66
2017-01-16T09:43:24.091Z,-6.74
2017-01-16T09:44:24.072Z,-6.6
2017-01-16T09:45:24.045Z,-6.66
2017-01-16T09:46:24.015Z,-6.53
2017-01-16T09:47:24.007Z,-6.47
2017-01-16T09:48:23.980Z,-6.55
2017-01-16T09:49:23.956Z,-6.48
2017-01-16T09:50:23.925Z,-6.5
2017-01-16T09:51:23.909Z,-6.31
2017-01-16T09:52:23.890Z,-6.37
2017-01-16T09:53:24.267Z,-6.34
2017-01-16T09:54:23.844Z,-6.27
2017-01-16T09:55:23.831Z,-6.27
2017-01-16T09:56:23.806Z,-6.26
2017-01-16T09:57:23.782Z,-6.2
2017-01-16T09:58:23.758Z,-6.19
2017-01-16T09:59:23.739Z,-6.13
2017-01-16T10:00:23.711Z,-6.1
2017-01-16T10:01:23.707Z,-6.1
2017-01-16T10:02:23.670Z,-5.99
2017-01-16T10:03:23.663Z,-6.08
2017-01-16T10:04:23.626Z,-6
2017-01-16T10:05:23.614Z,-5.99
2017-01-16T10:06:23.591Z,-5.92
2017-01-16T10:07:23.578Z,-5.99
2017-01-16T10:08:23.556Z,-5.78
2017-01-16T10:09:23.532Z,-5.9
2017-01-16T10:10:23.511Z,-5.87
2017-01-16T10:11:23.495Z,-5.71
2017-01-16T10:12:23.464Z,-5.78
2017-01-16T10:13:23.442Z,-5.77
2017-01-16T10:14:23.419Z,-5.73
2017-01-16T10:15:23.405Z,-5.7
2017-01-16T10:16:23.382Z,-5.6
2017-01-16T10:17:23.357Z,-5.64
2017-01-16T10:18:23.364Z,-5.52
2017-01-16T10:19:23.321Z,-5.57
2017-01-16T10:20:23.302Z,-5.59
2017-01-16T10:21:23.270Z,-5.48
2017-01-16T10:22:23.246Z,-5.46
2017-01-16T10:23:23.250Z,-5.35
2017-01-16T10:24:23.210Z,-5.43
2017-01-16T10:25:23.197Z,-5.34
2017-01-16T10:26:23.165Z,-5.25
2017-01-16T10:27:23.170Z,-5.2
2017-01-16T10:28:23.129Z,-5.06
2017-01-16T10:29:23.115Z,-5.05
2017-01-16T10:30:23.096Z,-5.03
2017-01-16T10:31:23.072Z,-4.95
2017-01-16T10:32:23.055Z,-4.85
2017-01-16T10:33:23.031Z,-4.85
2017-01-16T10:34:23.019Z,-4.74
2017-01-16T10:35:22.993Z,-4.7
2017-01-16T10:36:22.969Z,-4.77
2017-01-16T10:37:22.954Z,-4.66
2017-01-16T10:38:22.926Z,-4.7
2017-01-16T10:39:22.910Z,-4.73
2017-01-16T10:40:22.893Z,-4.69
2017-01-16T10:41:22.878Z,-4.66
2017-01-16T10:42:22.859Z,-4.7
2017-01-16T10:43:22.834Z,-4.65
2017-01-16T10:44:22.810Z,-4.66
2017-01-16T10:45:22.788Z,-4.65
2017-01-16T10:46:22.773Z,-4.88
2017-01-16T10:47:22.759Z,-5.09
2017-01-16T10:48:22.733Z,-5.21
2017-01-16T10:49:22.709Z,-5.3
2017-01-16T10:50:22.699Z,-5.39
2017-01-16T10:51:22.666Z,-5.38
2017-01-16T10:52:22.635Z,-5.51
2017-01-16T10:53:22.612Z,-5.45
2017-01-16T10:54:22.594Z,-5.59
2017-01-16T10:55:22.569Z,-5.62
2017-01-16T10:56:22.541Z,-5.57
2017-01-16T10:57:22.534Z,-5.66
2017-01-16T10:58:22.500Z,-5.66
2017-01-16T10:59:22.485Z,-5.67
2017-01-16T11:00:22.464Z,-5.8
2017-01-16T11:01:22.442Z,-5.84
2017-01-16T11:02:22.408Z,-5.98
2017-01-16T11:03:22.399Z,-6.13
2017-01-16T11:04:22.378Z,-6.24
2017-01-16T11:05:22.348Z,-6.29
2017-01-16T11:06:22.324Z,-6.42
2017-01-16T11:07:22.293Z,-6.5
2017-01-16T11:08:22.280Z,-6.56
2017-01-16T11:09:22.246Z,-6.61
2017-01-16T11:10:22.231Z,-6.63
2017-01-16T11:11:22.206Z,-6.75
2017-01-16T11:12:22.205Z,-6.78
2017-01-16T11:13:22.160Z,-6.84
2017-01-16T11:14:22.132Z,-6.98
2017-01-16T11:15:22.111Z,-7.13
2017-01-16T11:16:22.085Z,-7.16
2017-01-16T11:17:22.061Z,-7.11
2017-01-16T11:18:22.026Z,-7.18
2017-01-16T11:19:22.006Z,-7.18
2017-01-16T11:20:21.985Z,-7.32
2017-01-16T11:21:21.950Z,-7.27
2017-01-16T11:22:21.938Z,-7.34
2017-01-16T11:23:21.912Z,-7.32
2017-01-16T11:24:21.886Z,-7.38
2017-01-16T11:25:21.866Z,-7.27
2017-01-16T11:26:21.836Z,-7.35
2017-01-16T11:27:21.804Z,-7.27
2017-01-16T11:28:21.789Z,-7.38
2017-01-16T11:29:21.766Z,-7.32
2017-01-16T11:30:21.733Z,-7.37
2017-01-16T11:31:21.711Z,-7.37
2017-01-16T11:32:21.695Z,-7.42
2017-01-16T11:33:21.659Z,-7.49
2017-01-16T11:34:21.632Z,-7.41
2017-01-16T11:35:21.613Z,-7.42
2017-01-16T11:36:21.587Z,-7.37
2017-01-16T11:37:21.654Z,-7.45
2017-01-16T11:38:21.529Z,-7.39
2017-01-16T11:39:21.520Z,-7.42
2017-01-16T11:40:21.492Z,-7.52
2017-01-16T11:41:21.471Z,-7.46
2017-01-16T11:42:21.436Z,-7.45
2017-01-16T11:43:21.815Z,-7.46
2017-01-16T11:44:21.410Z,-7.41
2017-01-16T11:45:21.399Z,-7.47
2017-01-16T11:46:21.340Z,-7.56
2017-01-16T11:47:21.315Z,-7.6
2017-01-16T11:48:21.291Z,-7.64
2017-01-16T11:49:21.263Z,-7.7
2017-01-16T11:50:21.238Z,-7.82
2017-01-16T11:51:21.219Z,-7.91
2017-01-16T11:52:21.186Z,-7.98
2017-01-16T11:53:21.169Z,-7.95
2017-01-16T11:54:21.138Z,-8.08
2017-01-16T11:55:21.103Z,-8.17
2017-01-16T11:56:21.083Z,-8.24
2017-01-16T11:57:21.063Z,-8.21
2017-01-16T11:58:21.027Z,-8.34
2017-01-16T11:59:21.007Z,-8.28
2017-01-16T12:00:20.978Z,-8.24
2017-01-16T12:01:20.958Z,-8.25
2017-01-16T12:02:20.936Z,-8.17
2017-01-16T12:03:20.908Z,-8.22
2017-01-16T12:04:20.879Z,-8.22
2017-01-16T12:05:20.858Z,-8.25
2017-01-16T12:06:20.825Z,-8.31
2017-01-16T12:07:20.808Z,-8.31
2017-01-16T12:08:20.786Z,-8.45
2017-01-16T12:09:20.764Z,-8.39
2017-01-16T12:10:20.732Z,-8.43
2017-01-16T12:11:20.708Z,-8.47
2017-01-16T12:12:20.691Z,-8.47
2017-01-16T12:13:20.665Z,-8.55
2017-01-16T12:14:20.625Z,-8.7
2017-01-16T12:15:20.599Z,-8.71
2017-01-16T12:16:20.576Z,-8.74
2017-01-16T12:17:20.563Z,-8.74
2017-01-16T12:18:20.530Z,-8.85
2017-01-16T12:19:20.510Z,-8.91
2017-01-16T12:20:20.479Z,-8.92
2017-01-16T12:21:20.449Z,-8.99
2017-01-16T12:22:20.417Z,-9.06
2017-01-16T12:23:20.407Z,-9.09
2017-01-16T12:24:20.364Z,-9.06
2017-01-16T12:25:20.343Z,-9.06
2017-01-16T12:26:20.326Z,-9.12
2017-01-16T12:27:20.303Z,-9.17
2017-01-16T12:28:20.261Z,-9.26
2017-01-16T12:29:20.248Z,-9.16
2017-01-16T12:30:20.222Z,-9.27
2017-01-16T12:31:20.183Z,-9.26
2017-01-16T12:32:20.163Z,-9.27
2017-01-16T12:33:20.133Z,-9.41
2017-01-16T12:34:20.111Z,-9.46
2017-01-16T12:35:20.082Z,-9.54
2017-01-16T12:36:20.047Z,-9.53
2017-01-16T12:37:20.030Z,-9.72
2017-01-16T12:38:20.002Z,-9.75
2017-01-16T12:39:19.979Z,-9.67